Time;durP1;ratioP1;P1;durP2;ratioP2;P2;SDS_P1;SDS_P2;PMS_P1;PMS_P2;Temp;Humidity;BMP_temperature;BMP_pressure;BME280_temperature;BME280_humidity;BME280_pressure;Samples;Min_cycle;Max_cycle;Signal;HPM_P1;HPM_P2
2021/12/08 00:01:20;;;;;;;44.97;21.13;;;;;;;-1.03;100.00;100224.94;4886306;29;20552;-85
2021/12/08 00:03:48;;;;;;;44.83;21.90;;;;;;;-0.98;100.00;100226.78;4900851;29;20131;-88
2021/12/08 00:06:15;;;;;;;42.80;21.10;;;;;;;-1.02;100.00;100227.53;4886788;29;20088;-88
2021/12/08 00:08:59;;;;;;;45.13;21.60;;;;;;;-1.02;100.00;100234.44;4890332;29;20063;-86
2021/12/08 00:14:22;;;;;;;44.93;19.83;;;;;;;-1.02;100.00;100243.09;4913271;29;20101;-86
2021/12/08 00:17:04;;;;;;;48.37;20.63;;;;;;;-1.04;100.00;100233.56;4887919;29;20044;-85
2021/12/08 00:19:31;;;;;;;45.93;20.00;;;;;;;-0.99;100.00;100238.00;4907364;29;20048;-86
2021/12/08 00:21:58;;;;;;;40.90;18.20;;;;;;;-0.93;100.00;100232.91;4911196;29;20411;-85
2021/12/08 00:24:25;;;;;;;44.03;20.87;;;;;;;-0.97;100.00;100232.84;4882373;29;20506;-86
2021/12/08 00:26:56;;;;;;;46.80;18.37;;;;;;;-1.05;100.00;100221.44;4897168;29;20048;-85
2021/12/08 00:29:29;;;;;;;47.10;21.10;;;;;;;-1.01;100.00;100231.91;4907109;29;20058;-86
2021/12/08 00:31:58;;;;;;;37.40;18.43;;;;;;;-1.06;100.00;100230.94;4914440;29;20044;-85
2021/12/08 00:34:31;;;;;;;44.13;19.40;;;;;;;-1.03;100.00;100225.81;4905068;29;20064;-85
2021/12/08 00:37:03;;;;;;;42.30;20.77;;;;;;;-1.01;100.00;100223.22;4898476;29;20592;-86
2021/12/08 00:39:33;;;;;;;44.63;21.70;;;;;;;-1.02;100.00;100222.38;4895686;29;20589;-86
2021/12/08 00:42:00;;;;;;;44.37;20.00;;;;;;;-1.01;100.00;100224.13;4896528;29;20509;-88
2021/12/08 00:44:26;;;;;;;47.53;21.23;;;;;;;-1.04;100.00;100223.19;4884064;29;20058;-85
2021/12/08 00:46:59;;;;;;;43.73;20.43;;;;;;;-1.07;100.00;100207.59;4887012;29;20044;-87
2021/12/08 00:49:29;;;;;;;40.77;20.33;;;;;;;-1.15;100.00;100203.13;4898561;29;20078;-86
2021/12/08 00:51:56;;;;;;;46.70;22.33;;;;;;;-1.10;100.00;100200.59;4880691;29;20074;-86
2021/12/08 00:54:23;;;;;;;45.77;20.60;;;;;;;-1.19;100.00;100190.94;4868350;29;20063;-85
2021/12/08 00:56:49;;;;;;;40.13;18.67;;;;;;;-1.21;100.00;100195.22;4884408;29;20048;-85
2021/12/08 00:59:23;;;;;;;41.30;19.37;;;;;;;-1.28;100.00;100180.38;4887014;29;20410;-87
2021/12/08 01:01:52;;;;;;;48.53;19.70;;;;;;;-1.14;100.00;100181.53;4897620;29;20036;-85
2021/12/08 01:04:18;;;;;;;46.63;23.43;;;;;;;-1.11;100.00;100191.09;4885021;29;20048;-86
2021/12/08 01:06:45;;;;;;;38.93;19.20;;;;;;;-1.10;100.00;100187.63;4880582;29;20076;-86
2021/12/08 01:09:15;;;;;;;44.40;20.13;;;;;;;-1.18;100.00;100179.75;4915637;29;20050;-87
2021/12/08 01:11:41;;;;;;;42.53;21.00;;;;;;;-1.24;100.00;100173.56;4910530;29;20033;-87
2021/12/08 01:14:09;;;;;;;40.27;18.67;;;;;;;-1.22;100.00;100169.28;4880363;29;20056;-87
2021/12/08 01:16:36;;;;;;;45.40;21.70;;;;;;;-1.21;100.00;100156.34;4876738;29;20047;-88
2021/12/08 01:19:03;;;;;;;38.33;18.30;;;;;;;-1.49;100.00;100142.00;4903563;29;20072;-88
2021/12/08 01:21:31;;;;;;;44.57;19.23;;;;;;;-1.32;100.00;100139.72;4886908;29;20048;-86
2021/12/08 01:23:58;;;;;;;45.47;21.27;;;;;;;-1.24;100.00;100153.72;4874995;29;20044;-87
2021/12/08 01:26:30;;;;;;;42.47;18.67;;;;;;;-1.35;100.00;100147.44;4912100;29;20052;-88
2021/12/08 01:28:57;;;;;;;43.37;18.63;;;;;;;-1.32;100.00;100123.31;4873119;29;20059;-86
2021/12/08 01:31:26;;;;;;;41.77;19.37;;;;;;;-1.34;100.00;100133.66;4884462;29;20084;-87
2021/12/08 01:33:53;;;;;;;44.90;21.30;;;;;;;-1.33;100.00;100124.16;4901223;29;20096;-87
2021/12/08 01:36:20;;;;;;;39.20;18.43;;;;;;;-1.29;100.00;100115.59;4885599;29;21067;-88
2021/12/08 01:38:47;;;;;;;49.53;21.03;;;;;;;-1.26;100.00;100105.25;4891745;29;20075;-87
2021/12/08 01:41:14;;;;;;;52.87;21.70;;;;;;;-1.33;100.00;100109.47;4900256;29;20052;-87
2021/12/08 01:45:57;;;;;;;45.80;22.30;;;;;;;-1.41;100.00;100103.28;4913017;29;20177;-88
2021/12/08 01:46:31;;;;;;;41.17;18.47;;;;;;;-1.42;100.00;100096.38;4912707;29;20459;-87
2021/12/08 01:48:58;;;;;;;44.87;20.23;;;;;;;-1.36;100.00;100087.81;4904977;29;20051;-88
2021/12/08 01:51:25;;;;;;;43.10;21.33;;;;;;;-1.57;100.00;100088.28;4916248;29;20052;-87
2021/12/08 01:53:54;;;;;;;42.80;19.43;;;;;;;-1.41;100.00;100079.97;4886894;29;20116;-87
2021/12/08 01:56:24;;;;;;;40.33;20.67;;;;;;;-1.37;100.00;100066.22;4896871;29;20048;-87
2021/12/08 01:58:51;;;;;;;38.70;17.70;;;;;;;-1.40;100.00;100060.97;4913493;29;20131;-85
2021/12/08 02:01:21;;;;;;;41.57;19.73;;;;;;;-1.40;100.00;100068.75;4884798;29;20560;-86
2021/12/08 02:03:48;;;;;;;43.93;19.03;;;;;;;-1.46;100.00;100066.03;4889365;29;20044;-86
2021/12/08 02:06:17;;;;;;;42.57;19.23;;;;;;;-1.46;100.00;100064.31;4892303;29;20036;-84
2021/12/08 02:08:46;;;;;;;46.67;20.23;;;;;;;-1.44;100.00;100069.53;4902313;29;20095;-86
2021/12/08 02:11:13;;;;;;;35.83;18.50;;;;;;;-1.44;100.00;100060.03;4899204;29;20044;-86
2021/12/08 02:13:40;;;;;;;43.00;19.37;;;;;;;-1.39;100.00;100059.25;4913577;29;20100;-86
2021/12/08 02:16:11;;;;;;;36.93;20.37;;;;;;;-1.37;100.00;100065.34;4905196;29;20394;-86
2021/12/08 02:18:38;;;;;;;38.17;18.27;;;;;;;-1.51;100.00;100047.84;4909423;29;20488;-86
2021/12/08 02:21:29;;;;;;;39.87;17.77;;;;;;;-1.45;100.00;100050.53;4890570;29;20387;-86
2021/12/08 02:23:59;;;;;;;38.83;17.50;;;;;;;-1.37;100.00;100055.84;4893629;29;20044;-86
2021/12/08 02:26:27;;;;;;;38.80;18.03;;;;;;;-1.37;100.00;100040.28;4881225;29;20665;-87
2021/12/08 02:28:55;;;;;;;37.10;18.80;;;;;;;-1.39;100.00;100044.59;4885405;29;20045;-87
2021/12/08 02:31:36;;;;;;;37.77;18.70;;;;;;;-1.39;100.00;100046.31;4908182;29;20048;-86
2021/12/08 02:47:54;;;;;;;36.07;18.10;;;;;;;-1.48;100.00;100034.06;4912798;29;20047;-86
2021/12/08 02:50:26;;;;;;;38.13;16.87;;;;;;;-1.45;100.00;100034.97;4891486;29;20051;-86
2021/12/08 02:52:54;;;;;;;35.77;18.23;;;;;;;-1.46;100.00;100033.22;4902857;29;20043;-85
2021/12/08 02:55:21;;;;;;;31.10;16.97;;;;;;;-1.38;100.00;100029.91;4905941;29;20044;-85
2021/12/08 02:57:47;;;;;;;39.10;18.63;;;;;;;-1.53;100.00;100023.59;4885721;29;20041;-87
2021/12/08 03:00:17;;;;;;;37.70;17.67;;;;;;;-1.57;100.00;100029.59;4909096;29;20068;-86
2021/12/08 03:02:44;;;;;;;37.37;16.60;;;;;;;-1.47;100.00;100028.03;4905647;29;20044;-85
2021/12/08 03:05:11;;;;;;;35.87;18.13;;;;;;;-1.49;100.00;100011.59;4883605;29;20048;-86
2021/12/08 03:07:38;;;;;;;37.80;16.80;;;;;;;-1.53;100.00;100018.41;4885693;29;20036;-84
2021/12/08 03:10:16;;;;;;;31.77;16.20;;;;;;;-1.51;100.00;100019.34;4896578;29;20051;-84
2021/12/08 03:12:43;;;;;;;32.13;16.40;;;;;;;-1.49;100.00;100006.41;4884379;29;20414;-86
2021/12/08 03:15:11;;;;;;;37.33;17.53;;;;;;;-1.50;100.00;100010.72;4888881;29;20048;-86
2021/12/08 03:17:38;;;;;;;40.00;18.27;;;;;;;-1.59;100.00;100010.56;4886216;29;20054;-86
2021/12/08 03:20:08;;;;;;;40.00;18.53;;;;;;;-1.59;100.00;99997.63;4909784;29;20502;-85
2021/12/08 03:22:40;;;;;;;42.53;19.27;;;;;;;-1.59;100.00;99997.63;4884205;29;20443;-85
2021/12/08 03:25:10;;;;;;;37.37;18.20;;;;;;;-1.57;100.00;99995.03;4884581;29;20052;-85
2021/12/08 03:27:44;;;;;;;39.60;18.63;;;;;;;-1.60;100.00;99982.91;4886823;29;20050;-84
2021/12/08 03:30:19;;;;;;;37.58;18.27;;;;;;;-1.60;100.00;99989.78;4904810;29;20040;-86
2021/12/08 03:32:46;;;;;;;42.83;19.43;;;;;;;-1.63;100.00;99981.97;4887613;29;20119;-86
2021/12/08 03:35:15;;;;;;;36.57;18.07;;;;;;;-1.57;100.00;99988.16;4891610;29;20048;-85
2021/12/08 03:37:45;;;;;;;40.17;20.50;;;;;;;-1.51;100.00;99987.41;4904198;29;20060;-85
2021/12/08 03:40:18;;;;;;;40.80;19.93;;;;;;;-1.49;100.00;99991.75;4886530;29;20051;-85
2021/12/08 03:42:46;;;;;;;39.93;18.97;;;;;;;-1.42;100.00;99992.72;4906137;29;20436;-85
2021/12/08 03:45:21;;;;;;;37.70;18.50;;;;;;;-1.53;100.00;99981.28;4910519;29;20048;-85
2021/12/08 03:47:50;;;;;;;42.27;19.97;;;;;;;-1.45;100.00;99972.81;4896926;29;20072;-84
2021/12/08 03:50:18;;;;;;;39.47;18.87;;;;;;;-1.44;100.00;99966.78;4876120;29;20055;-86
2021/12/08 03:52:45;;;;;;;45.13;20.87;;;;;;;-1.52;100.00;99975.25;4882410;29;20052;-85
2021/12/08 03:55:13;;;;;;;43.67;20.93;;;;;;;-1.48;100.00;99977.94;4907559;29;20044;-86
2021/12/08 03:57:40;;;;;;;47.73;21.27;;;;;;;-1.55;100.00;99980.41;4914618;29;20080;-84
2021/12/08 04:00:11;;;;;;;43.40;19.53;;;;;;;-1.49;100.00;99975.34;4880168;29;20394;-85
2021/12/08 04:02:37;;;;;;;42.30;20.23;;;;;;;-1.55;100.00;99983.00;4890826;29;20039;-86
2021/12/08 04:05:06;;;;;;;40.73;20.37;;;;;;;-1.55;100.00;99983.84;4872611;29;20046;-85
2021/12/08 04:07:36;;;;;;;44.63;22.67;;;;;;;-1.55;100.00;99988.16;4917994;29;20076;-84
2021/12/08 04:10:03;;;;;;;53.87;23.37;;;;;;;-1.55;100.00;99986.44;4894002;29;20055;-85
2021/12/08 04:12:30;;;;;;;44.47;21.50;;;;;;;-1.50;100.00;99991.72;4877540;29;20103;-85
2021/12/08 04:15:00;;;;;;;43.93;21.03;;;;;;;-1.53;100.00;99983.88;4882632;29;20047;-86
2021/12/08 04:17:31;;;;;;;46.67;20.43;;;;;;;-1.43;100.00;99978.00;4889620;29;20070;-85
2021/12/08 04:20:00;;;;;;;35.57;16.83;;;;;;;-1.52;100.00;99983.91;4868185;29;20497;-87
2021/12/08 04:22:31;;;;;;;45.30;18.97;;;;;;;-1.53;100.00;99983.88;4898448;29;20501;-84
2021/12/08 04:24:59;;;;;;;39.10;20.20;;;;;;;-1.63;100.00;99981.97;4882018;29;20048;-86
2021/12/08 04:27:30;;;;;;;41.13;19.23;;;;;;;-1.66;100.00;99977.63;4884050;29;20052;-87
2021/12/08 04:29:57;;;;;;;45.87;22.70;;;;;;;-1.61;100.00;99978.56;4908821;29;20056;-85
2021/12/08 04:32:27;;;;;;;58.37;25.13;;;;;;;-1.62;100.00;99974.22;4892188;29;20392;-86
2021/12/08 04:34:56;;;;;;;109.60;55.13;;;;;;;-1.66;100.00;99972.44;4894096;29;20051;-84
2021/12/08 04:37:29;;;;;;;60.10;28.37;;;;;;;-1.62;100.00;99970.78;4881375;29;20059;-85
2021/12/08 04:40:16;;;;;;;44.23;20.53;;;;;;;-1.54;100.00;99962.28;4906016;29;20056;-86
2021/12/08 04:43:10;;;;;;;42.53;21.17;;;;;;;-1.54;100.00;99961.41;4874638;29;20040;-85
2021/12/08 04:46:00;;;;;;;45.70;21.90;;;;;;;-1.56;100.00;99957.94;4883957;29;20072;-86
2021/12/08 04:48:46;;;;;;;39.67;19.07;;;;;;;-1.63;100.00;99962.13;4901202;29;20413;-86
2021/12/08 05:00:25;;;;;;;41.77;19.10;;;;;;;-1.67;100.00;99982.78;4904908;29;20036;-85
2021/12/08 05:08:13;;;;;;;40.97;18.23;;;;;;;-1.62;100.00;99984.59;4978555;23;20067;-79
2021/12/08 05:10:41;;;;;;;42.23;20.37;;;;;;;-1.71;100.00;99982.72;4936539;28;20048;-78
2021/12/08 05:13:10;;;;;;;41.93;19.47;;;;;;;-1.62;100.00;99975.94;4933942;29;20086;-77
2021/12/08 05:15:39;;;;;;;45.17;19.07;;;;;;;-1.56;100.00;99976.94;4936153;28;20047;-78
2021/12/08 05:18:13;;;;;;;38.03;19.93;;;;;;;-1.56;100.00;99965.72;4934901;29;20048;-78
2021/12/08 05:21:04;;;;;;;46.97;20.20;;;;;;;-1.62;100.00;99963.88;4934129;29;20043;-78
2021/12/08 05:23:43;;;;;;;41.70;19.00;;;;;;;-1.58;100.00;99964.81;4935918;29;20047;-80
2021/12/08 05:26:15;;;;;;;42.37;20.17;;;;;;;-1.53;100.00;99961.44;4911528;29;20499;-78
2021/12/08 05:28:44;;;;;;;41.13;19.73;;;;;;;-1.55;100.00;99959.69;4929355;29;20051;-78
2021/12/08 05:31:15;;;;;;;43.70;19.07;;;;;;;-1.54;100.00;99961.41;4919970;28;20042;-78
2021/12/08 05:33:42;;;;;;;43.50;20.57;;;;;;;-1.61;100.00;99963.03;4924210;29;20047;-78
2021/12/08 05:36:11;;;;;;;40.93;18.17;;;;;;;-1.61;100.00;99964.75;4921610;29;20043;-79
2021/12/08 05:38:38;;;;;;;40.10;19.23;;;;;;;-1.73;100.00;99975.78;4908136;29;20071;-77
2021/12/08 05:41:18;;;;;;;40.13;19.30;;;;;;;-1.60;100.00;99979.44;4907708;29;20043;-78
2021/12/08 05:43:45;;;;;;;37.97;19.33;;;;;;;-1.54;100.00;99987.31;4927611;29;20048;-77
2021/12/08 05:46:14;;;;;;;40.53;18.17;;;;;;;-1.49;100.00;99996.06;4916566;29;20050;-78
2021/12/08 05:48:42;;;;;;;40.57;18.27;;;;;;;-1.48;100.00;100009.03;4942705;28;20055;-77
2021/12/08 05:51:13;;;;;;;38.87;19.67;;;;;;;-1.44;100.00;100002.16;4917650;29;20579;-78
2021/12/08 05:53:44;;;;;;;32.67;17.90;;;;;;;-1.45;100.00;100008.19;4902918;29;20111;-77
2021/12/08 05:56:11;;;;;;;36.00;17.80;;;;;;;-1.49;100.00;100007.28;4920640;29;20257;-77
2021/12/08 05:58:40;;;;;;;34.40;17.97;;;;;;;-1.43;100.00;99998.72;4904320;29;20044;-77
2021/12/08 06:01:17;;;;;;;39.97;18.07;;;;;;;-1.42;100.00;99988.41;4910504;29;20039;-77
2021/12/08 06:03:46;;;;;;;34.33;18.23;;;;;;;-1.37;100.00;99988.47;4912126;28;20097;-77
2021/12/08 06:06:13;;;;;;;37.73;18.27;;;;;;;-1.34;100.00;99996.31;4931831;29;20054;-76
2021/12/08 06:08:41;;;;;;;37.07;17.07;;;;;;;-1.40;100.00;99991.03;4932130;29;20472;-78
2021/12/08 06:11:09;;;;;;;41.63;18.43;;;;;;;-1.38;100.00;99991.91;4915640;29;20100;-78
2021/12/08 06:13:37;;;;;;;36.70;17.50;;;;;;;-1.37;100.00;99990.19;4902197;29;20103;-78
2021/12/08 06:16:05;;;;;;;34.73;17.67;;;;;;;-1.38;100.00;99994.50;4894411;29;20051;-78
2021/12/08 06:18:38;;;;;;;37.93;18.63;;;;;;;-1.45;100.00;99988.34;4928465;29;20044;-78
2021/12/08 06:21:12;;;;;;;32.37;16.80;;;;;;;-1.34;100.00;99991.13;4929050;29;20036;-77
2021/12/08 06:23:39;;;;;;;41.10;19.50;;;;;;;-1.36;100.00;99990.22;4928220;29;20095;-77
2021/12/08 06:26:07;;;;;;;39.47;18.47;;;;;;;-1.33;100.00;99986.81;4924698;29;20038;-78
2021/12/08 06:28:34;;;;;;;40.10;18.47;;;;;;;-1.27;100.00;99981.72;4912468;29;20071;-78
2021/12/08 06:31:04;;;;;;;36.97;17.70;;;;;;;-1.28;100.00;99974.78;4916258;29;20051;-77
2021/12/08 06:33:31;;;;;;;34.50;17.20;;;;;;;-1.35;100.00;99976.41;4913696;29;20043;-78
2021/12/08 06:36:06;;;;;;;35.87;16.53;;;;;;;-1.36;100.00;99977.25;4934034;29;20045;-78
2021/12/08 06:38:33;;;;;;;34.17;16.73;;;;;;;-1.30;100.00;99974.78;4931146;29;20050;-78
2021/12/08 06:41:07;;;;;;;33.43;16.33;;;;;;;-1.26;100.00;99970.50;4923240;29;20099;-81
2021/12/08 06:43:40;;;;;;;39.45;18.77;;;;;;;-1.29;100.00;99963.56;4917262;29;20055;-79
2021/12/08 06:46:07;;;;;;;46.57;22.90;;;;;;;-1.27;100.00;99972.22;4908082;29;20539;-78
2021/12/08 06:48:42;;;;;;;42.37;21.90;;;;;;;-1.35;100.00;99968.63;4924983;29;20123;-77
2021/12/08 06:51:14;;;;;;;33.70;18.03;;;;;;;-1.30;100.00;99966.13;4913980;29;20032;-79
2021/12/08 06:53:44;;;;;;;44.60;21.67;;;;;;;-1.30;100.00;99979.09;4941498;28;20047;-79
2021/12/08 06:56:16;;;;;;;43.87;24.07;;;;;;;-1.27;100.00;99982.59;4918389;29;20043;-78
2021/12/08 06:59:10;;;;;;;53.90;28.13;;;;;;;-1.23;100.00;99979.22;4947188;28;20106;-82
2021/12/08 07:01:48;;;;;;;34.05;19.08;;;;;;;-1.28;100.00;99973.06;4924212;29;20035;-81
2021/12/08 07:07:11;;;;;;;36.23;18.23;;;;;;;-1.29;100.00;99976.53;4937810;29;20126;-81
2021/12/08 07:09:41;;;;;;;35.43;21.40;;;;;;;-1.29;100.00;99988.59;4919847;29;20469;-80
2021/12/08 07:12:31;;;;;;;38.83;19.83;;;;;;;-1.27;100.00;99994.69;4919778;29;20122;-80
2021/12/08 07:15:47;;;;;;;34.27;17.90;;;;;;;-1.23;100.00;99988.72;4914151;28;20123;-80
2021/12/08 07:18:25;;;;;;;32.80;18.03;;;;;;;-1.26;100.00;99981.78;4934622;29;20043;-80
2021/12/08 07:20:57;;;;;;;33.63;18.03;;;;;;;-1.25;100.00;99985.22;4906598;29;20062;-80
2021/12/08 07:23:28;;;;;;;32.87;16.87;;;;;;;-1.30;100.00;99977.38;4934167;29;20044;-79
2021/12/08 07:25:57;;;;;;;32.33;17.00;;;;;;;-1.28;100.00;99985.16;4914493;29;20055;-80
2021/12/08 07:28:27;;;;;;;35.17;18.30;;;;;;;-1.23;100.00;99975.75;4927167;29;20056;-80
2021/12/08 07:30:57;;;;;;;34.33;15.93;;;;;;;-1.24;100.00;99982.66;4918369;29;20453;-81
2021/12/08 07:33:26;;;;;;;32.83;16.00;;;;;;;-1.26;100.00;99975.69;4936504;28;20051;-80
2021/12/08 07:35:56;;;;;;;29.57;16.57;;;;;;;-1.15;100.00;99981.94;4922200;29;20043;-79
2021/12/08 07:38:28;;;;;;;34.90;17.03;;;;;;;-1.18;100.00;99979.28;4910620;29;20071;-79
2021/12/08 07:41:06;;;;;;;30.87;15.70;;;;;;;-1.10;100.00;99976.81;4913304;29;20047;-79
2021/12/08 07:43:36;;;;;;;32.83;16.47;;;;;;;-1.08;100.00;99985.50;4909284;29;20412;-79
2021/12/08 07:46:09;;;;;;;36.73;20.40;;;;;;;-1.23;100.00;99978.34;4916280;29;20115;-79
2021/12/08 07:48:43;;;;;;;36.63;20.50;;;;;;;-1.15;100.00;99967.25;4921651;29;20051;-79
2021/12/08 07:51:15;;;;;;;36.75;17.77;;;;;;;-1.14;100.00;99968.13;4938330;29;20039;-79
2021/12/08 07:53:43;;;;;;;39.43;21.27;;;;;;;-1.15;100.00;99958.59;4921571;29;20054;-80
2021/12/08 07:56:11;;;;;;;37.90;20.30;;;;;;;-1.11;100.00;99954.31;4923488;29;20051;-80
2021/12/08 07:58:40;;;;;;;37.93;20.40;;;;;;;-1.05;100.00;99954.44;4932985;29;20524;-79
2021/12/08 08:01:18;;;;;;;36.23;19.83;;;;;;;-1.05;100.00;99955.28;4911327;29;20047;-79
2021/12/08 08:03:45;;;;;;;40.83;23.93;;;;;;;-1.02;100.00;99959.66;4936662;29;20083;-79
2021/12/08 08:06:18;;;;;;;33.53;16.67;;;;;;;-1.06;100.00;99961.34;4920840;29;20047;-79
2021/12/08 08:08:45;;;;;;;40.70;21.23;;;;;;;-1.12;100.00;99950.88;4919380;28;20043;-79
2021/12/08 08:11:26;;;;;;;35.97;19.27;;;;;;;-1.06;100.00;99944.91;4930821;29;20035;-79
2021/12/08 08:13:54;;;;;;;36.93;19.67;;;;;;;-1.02;100.00;99946.69;4952611;28;20039;-79
2021/12/08 08:16:24;;;;;;;30.70;17.53;;;;;;;-0.96;100.00;99946.78;4933531;29;20039;-79
2021/12/08 08:18:58;;;;;;;36.43;16.47;;;;;;;-0.98;100.00;99946.75;4934241;29;20043;-79
2021/12/08 08:21:28;;;;;;;32.78;16.75;;;;;;;-0.94;100.00;99937.28;4938824;29;20485;-79
2021/12/08 08:23:56;;;;;;;35.90;16.47;;;;;;;-0.88;100.00;99946.03;4935166;29;20039;-79
2021/12/08 08:26:23;;;;;;;39.00;18.80;;;;;;;-0.93;100.00;99939.91;4939494;29;20067;-79
2021/12/08 08:28:52;;;;;;;38.07;18.23;;;;;;;-0.87;100.00;99941.72;4951662;29;20050;-79
2021/12/08 08:31:23;;;;;;;32.40;15.87;;;;;;;-0.95;100.00;99932.97;4938385;29;20047;-79
2021/12/08 08:33:51;;;;;;;34.47;16.93;;;;;;;-0.86;100.00;99933.97;4924176;29;20497;-79
2021/12/08 08:36:21;;;;;;;34.07;17.13;;;;;;;-0.87;100.00;99931.34;4909319;29;20067;-79
2021/12/08 08:39:10;;;;;;;35.77;17.60;;;;;;;-0.84;100.00;99934.00;4935020;29;20046;-79
2021/12/08 08:41:44;;;;;;;30.03;14.80;;;;;;;-0.82;100.00;99924.53;4938450;29;20119;-79
2021/12/08 08:44:17;;;;;;;29.25;16.02;;;;;;;-0.75;100.00;99934.13;4924017;28;20039;-79
2021/12/08 08:46:51;;;;;;;35.23;16.60;;;;;;;-0.74;100.00;99922.91;4927942;29;20183;-79
2021/12/08 08:49:22;;;;;;;33.77;16.07;;;;;;;-0.73;100.00;99927.22;4902111;29;20585;-79
2021/12/08 08:52:00;;;;;;;32.33;16.80;;;;;;;-0.81;100.00;99934.03;4929589;29;20068;-79
2021/12/08 08:54:40;;;;;;;33.73;16.40;;;;;;;-0.71;100.00;99933.31;4934437;29;20039;-80
2021/12/08 08:57:10;;;;;;;32.40;17.07;;;;;;;-0.74;100.00;99932.41;4923596;29;20040;-79
2021/12/08 08:59:45;;;;;;;34.20;16.80;;;;;;;-0.71;100.00;99928.13;4913120;28;20110;-79
2021/12/08 09:02:19;;;;;;;27.30;15.43;;;;;;;-0.85;100.00;99919.28;4935296;29;20043;-79
2021/12/08 09:04:51;;;;;;;30.38;14.80;;;;;;;-0.81;100.00;99923.66;4932029;29;20035;-79
2021/12/08 09:07:27;;;;;;;35.97;15.93;;;;;;;-0.75;100.00;99923.75;4928315;28;20042;-79
2021/12/08 09:09:56;;;;;;;33.57;16.60;;;;;;;-0.65;100.00;99910.03;4921160;29;20465;-79
2021/12/08 09:12:34;;;;;;;69.83;31.77;;;;;;;-0.58;100.00;99914.47;4920190;29;20051;-79
2021/12/08 09:15:32;;;;;;;35.83;18.33;;;;;;;-0.63;100.00;99921.31;4916860;29;20042;-79
2021/12/08 09:18:13;;;;;;;34.23;15.57;;;;;;;-0.57;100.00;99920.53;4940045;28;20539;-79
2021/12/08 09:20:57;;;;;;;28.33;16.17;;;;;;;-0.70;100.00;99914.28;4920818;29;20039;-79
2021/12/08 09:23:29;;;;;;;36.35;16.60;;;;;;;-0.70;100.00;99903.91;4913920;29;21318;-80
2021/12/08 09:26:04;;;;;;;32.43;15.57;;;;;;;-0.74;100.00;99912.53;4938082;28;20053;-79
2021/12/08 09:28:35;;;;;;;31.27;15.93;;;;;;;-0.63;100.00;99915.25;4949519;28;20043;-80
2021/12/08 09:31:10;;;;;;;38.13;17.43;;;;;;;-0.75;100.00;99910.78;4926611;29;20138;-79
2021/12/08 09:33:45;;;;;;;37.43;17.03;;;;;;;-0.64;100.00;99903.13;4901611;29;20051;-79
2021/12/08 09:36:15;;;;;;;35.00;16.87;;;;;;;-0.61;100.00;99911.81;4921073;29;20548;-80
2021/12/08 09:38:48;;;;;;;36.20;16.77;;;;;;;-0.64;100.00;99911.78;4895835;29;20070;-80
2021/12/08 09:41:29;;;;;;;37.03;18.87;;;;;;;-0.57;100.00;99905.81;4931579;29;20138;-80
2021/12/08 09:44:00;;;;;;;38.03;17.40;;;;;;;-0.50;100.00;99900.72;4926650;28;20258;-80
2021/12/08 09:46:32;;;;;;;34.70;17.17;;;;;;;-0.70;100.00;99896.13;4950292;28;20420;-80
2021/12/08 09:48:59;;;;;;;35.20;17.33;;;;;;;-0.54;100.00;99902.38;4934852;29;20046;-80
2021/12/08 09:51:27;;;;;;;34.67;18.57;;;;;;;-0.55;100.00;99903.25;4932495;29;20195;-80
2021/12/08 09:53:54;;;;;;;35.90;18.17;;;;;;;-0.53;100.00;99898.94;4916502;28;20051;-80
2021/12/08 09:56:22;;;;;;;36.47;17.80;;;;;;;-0.51;100.00;99885.97;4936646;29;20054;-80
2021/12/08 09:58:48;;;;;;;32.23;18.13;;;;;;;-0.58;100.00;99896.31;4936623;29;20523;-80
2021/12/08 10:01:19;;;;;;;37.63;18.17;;;;;;;-0.49;100.00;99889.50;4934021;29;20047;-80
2021/12/08 10:03:48;;;;;;;43.60;23.07;;;;;;;-0.51;100.00;99894.63;4920215;29;20043;-80
2021/12/08 10:06:15;;;;;;;43.63;21.77;;;;;;;-0.56;100.00;99880.75;4926224;29;20047;-79
2021/12/08 10:08:44;;;;;;;41.80;19.87;;;;;;;-0.53;100.00;99882.50;4920493;29;20047;-80
2021/12/08 10:11:11;;;;;;;39.43;18.83;;;;;;;-0.66;100.00;99897.94;4913165;29;20044;-79
2021/12/08 10:13:38;;;;;;;38.13;18.37;;;;;;;-0.57;100.00;99897.19;4939093;28;20051;-79
2021/12/08 10:16:07;;;;;;;37.07;19.10;;;;;;;-0.47;100.00;99880.00;4924740;29;20145;-79
2021/12/08 10:18:34;;;;;;;36.73;18.87;;;;;;;-0.49;100.00;99887.75;4935399;29;20055;-79
2021/12/08 10:21:00;;;;;;;50.03;27.53;;;;;;;-0.45;100.00;99873.09;4935246;29;20053;-79
2021/12/08 10:23:37;;;;;;;42.17;19.77;;;;;;;-0.51;100.00;99883.38;4921699;29;20615;-80
2021/12/08 10:26:24;;;;;;;34.17;17.47;;;;;;;-0.50;100.00;99893.81;4940211;28;20043;-79
2021/12/08 10:28:55;;;;;;;34.50;16.27;;;;;;;-0.48;100.00;99888.63;4915730;29;20051;-79
2021/12/08 10:31:30;;;;;;;45.10;19.50;;;;;;;-0.48;100.00;99894.69;4904787;28;20532;-80
2021/12/08 10:34:22;;;;;;;39.43;19.67;;;;;;;-0.48;100.00;99888.63;4916173;28;20123;-79
2021/12/08 10:36:59;;;;;;;43.00;20.53;;;;;;;-0.42;100.00;99880.88;4922744;29;20047;-79
2021/12/08 10:39:41;;;;;;;40.77;19.30;;;;;;;-0.39;100.00;99879.22;4928854;28;20050;-80
2021/12/08 10:42:28;;;;;;;38.70;18.20;;;;;;;-0.39;100.00;99870.56;4922245;29;20569;-79
2021/12/08 10:45:01;;;;;;;46.47;21.03;;;;;;;-0.40;100.00;99871.41;4914774;28;20044;-79
2021/12/08 10:47:30;;;;;;;39.67;18.37;;;;;;;-0.40;100.00;99848.94;4926107;28;20102;-80
2021/12/08 10:55:34;;;;;;;41.03;19.13;;;;;;;-0.44;100.00;99847.16;4933922;28;20042;-80
2021/12/08 10:58:01;;;;;;;36.47;17.43;;;;;;;-0.42;100.00;99861.03;4935636;29;20039;-80
2021/12/08 11:00:34;;;;;;;40.70;19.53;;;;;;;-0.38;100.00;99851.53;4924726;28;20046;-80
2021/12/08 11:03:12;;;;;;;40.40;18.17;;;;;;;-0.37;100.00;99848.97;4937160;29;20039;-80
2021/12/08 11:05:46;;;;;;;40.13;18.73;;;;;;;-0.30;100.00;99852.50;4917954;29;20073;-81
2021/12/08 11:08:14;;;;;;;39.75;17.17;;;;;;;-0.23;100.00;99837.84;4919419;28;20050;-81
2021/12/08 11:11:07;;;;;;;38.97;18.47;;;;;;;-0.27;100.00;99836.94;4933607;28;20122;-81
2021/12/08 11:13:42;;;;;;;42.30;19.93;;;;;;;-0.26;100.00;99835.22;4920652;29;20583;-79
2021/12/08 11:16:25;;;;;;;42.80;20.23;;;;;;;-0.26;100.00;99824.81;4938754;28;20082;-81
2021/12/08 11:19:00;;;;;;;44.13;19.37;;;;;;;-0.13;100.00;99818.91;4946755;28;20031;-80
2021/12/08 11:21:36;;;;;;;41.90;18.97;;;;;;;-0.18;100.00;99821.44;4922903;29;20051;-82
2021/12/08 11:24:19;;;;;;;46.10;20.73;;;;;;;-0.04;100.00;99822.44;4982786;23;20064;-82
2021/12/08 11:26:48;;;;;;;42.83;19.80;;;;;;;-0.09;100.00;99829.31;4905192;29;20055;-82
2021/12/08 11:29:18;;;;;;;39.57;19.40;;;;;;;-0.14;100.00;99831.03;4903265;29;20100;-82
2021/12/08 11:31:48;;;;;;;41.60;19.63;;;;;;;0.03;100.00;99830.31;4893697;29;20048;-82
2021/12/08 11:34:16;;;;;;;37.83;18.13;;;;;;;0.06;100.00;99830.31;4901729;29;20040;-84
2021/12/08 11:36:45;;;;;;;41.50;19.97;;;;;;;0.05;100.00;99836.38;4907665;29;20052;-81
2021/12/08 11:39:18;;;;;;;114.00;52.93;;;;;;;0.06;100.00;99820.81;4897818;29;20050;-82
2021/12/08 11:41:47;;;;;;;105.40;54.37;;;;;;;-0.02;100.00;99820.72;4900741;29;20055;-83
2021/12/08 11:44:24;;;;;;;49.90;24.03;;;;;;;0.13;100.00;99830.38;4885166;29;20044;-82
2021/12/08 11:47:04;;;;;;;42.53;18.50;;;;;;;0.04;100.00;99824.25;4896194;29;20048;-82
2021/12/08 11:49:32;;;;;;;41.50;18.07;;;;;;;0.06;100.00;99823.41;4899218;29;20055;-82
2021/12/08 11:52:02;;;;;;;38.73;19.83;;;;;;;-0.02;100.00;99823.31;4901476;29;20055;-82
2021/12/08 11:54:38;;;;;;;35.07;17.77;;;;;;;-0.04;100.00;99826.78;4900459;29;20040;-82
2021/12/08 11:57:25;;;;;;;42.17;22.93;;;;;;;-0.03;100.00;99825.91;4884772;29;20095;-85
2021/12/08 11:59:58;;;;;;;36.67;17.40;;;;;;;0.05;100.00;99823.38;4903090;29;20052;-82
2021/12/08 12:02:29;;;;;;;38.47;19.07;;;;;;;0.02;100.00;99813.84;4901190;29;20043;-83
2021/12/08 12:04:56;;;;;;;41.57;18.83;;;;;;;-0.02;100.00;99832.84;4876200;29;20193;-83
2021/12/08 12:07:23;;;;;;;46.43;25.00;;;;;;;-0.03;100.00;99831.13;4883870;29;20048;-83